Time;durP1;ratioP1;P1;durP2;ratioP2;P2;SDS_P1;SDS_P2;PMS_P1;PMS_P2;Temp;Humidity;BMP_temperature;BMP_pressure;BME280_temperature;BME280_humidity;BME280_pressure;Samples;Min_cycle;Max_cycle;Signal;HPM_P1;HPM_P2
2021/09/26 00:01:10;;;;;;;15.83;8.60;;;;;;;;;;5018070;28;20032;-86
2021/09/26 00:03:36;;;;;;;8.33;6.67;;;;;;;;;;5016248;28;20124;-86
2021/09/26 00:06:01;;;;;;;10.53;6.60;;;;;;;;;;5017063;28;20264;-86
2021/09/26 00:08:26;;;;;;;8.63;6.47;;;;;;;;;;5037771;28;20252;-86
2021/09/26 00:10:52;;;;;;;16.95;8.25;;;;;;;;;;5020921;28;20028;-86
2021/09/26 00:13:18;;;;;;;15.25;7.78;;;;;;;;;;5037107;28;20024;-86
2021/09/26 00:15:43;;;;;;;13.73;7.57;;;;;;;;;;5022728;28;20021;-86
2021/09/26 00:18:09;;;;;;;20.80;10.30;;;;;;;;;;5019062;28;20045;-86
2021/09/26 00:20:34;;;;;;;18.13;9.23;;;;;;;;;;5021509;28;20025;-86
2021/09/26 00:23:00;;;;;;;11.10;7.90;;;;;;;;;;5021788;28;20442;-86
2021/09/26 00:25:25;;;;;;;14.30;9.20;;;;;;;;;;5024892;28;20029;-86
2021/09/26 00:27:51;;;;;;;14.48;8.57;;;;;;;;;;5043528;28;20021;-83
2021/09/26 00:30:16;;;;;;;21.20;9.82;;;;;;;;;;5020401;28;20025;-84
2021/09/26 00:32:45;;;;;;;19.52;10.07;;;;;;;;;;5022908;28;20507;-83
2021/09/26 00:35:11;;;;;;;9.55;8.40;;;;;;;;;;5019949;28;20084;-83
2021/09/26 00:37:37;;;;;;;22.75;10.07;;;;;;;;;;5039199;28;20041;-84
2021/09/26 00:40:03;;;;;;;10.02;6.93;;;;;;;;;;5039417;28;20792;-84
2021/09/26 00:42:28;;;;;;;14.40;8.18;;;;;;;;;;5022543;28;20047;-84
2021/09/26 00:44:53;;;;;;;11.20;6.90;;;;;;;;;;5018469;28;20025;-84
2021/09/26 00:47:19;;;;;;;10.65;7.65;;;;;;;;;;5017192;28;20025;-84
2021/09/26 00:49:45;;;;;;;11.10;7.90;;;;;;;;;;5038417;28;20025;-84
2021/09/26 00:52:10;;;;;;;14.75;8.80;;;;;;;;;;5036594;28;20029;-83
2021/09/26 00:54:35;;;;;;;16.00;8.37;;;;;;;;;;5036074;28;20025;-86
2021/09/26 00:57:01;;;;;;;16.17;8.48;;;;;;;;;;5037746;28;20263;-86
2021/09/26 00:59:27;;;;;;;8.70;6.93;;;;;;;;;;5039213;28;20390;-86
2021/09/26 01:01:52;;;;;;;10.25;6.97;;;;;;;;;;5022263;28;20032;-86
2021/09/26 01:04:17;;;;;;;9.73;6.97;;;;;;;;;;5019265;28;20034;-86
2021/09/26 01:06:59;;;;;;;9.13;7.53;;;;;;;;;;5036993;28;20279;-86
2021/09/26 01:09:30;;;;;;;18.08;10.90;;;;;;;;;;5038426;28;20036;-86
2021/09/26 01:12:14;;;;;;;17.80;8.38;;;;;;;;;;5039650;28;20029;-86
2021/09/26 01:14:56;;;;;;;15.88;8.25;;;;;;;;;;5018452;28;20028;-86
2021/09/26 01:17:34;;;;;;;15.85;9.45;;;;;;;;;;5021906;28;20052;-84
2021/09/26 01:20:02;;;;;;;15.93;9.85;;;;;;;;;;5036149;28;20050;-84
2021/09/26 01:22:37;;;;;;;18.65;9.32;;;;;;;;;;5036045;28;20048;-84
2021/09/26 01:25:21;;;;;;;17.00;8.68;;;;;;;;;;5038183;28;20026;-84
2021/09/26 01:28:01;;;;;;;16.88;9.13;;;;;;;;;;5038057;28;20030;-84
2021/09/26 01:30:36;;;;;;;14.38;8.63;;;;;;;;;;5019169;28;20095;-84
2021/09/26 01:33:01;;;;;;;17.42;10.15;;;;;;;;;;5039960;28;20032;-84
2021/09/26 01:35:27;;;;;;;12.07;8.05;;;;;;;;;;5018312;28;20024;-83
2021/09/26 01:38:15;;;;;;;8.38;7.55;;;;;;;;;;5019334;28;20386;-84
2021/09/26 01:40:45;;;;;;;9.73;7.13;;;;;;;;;;5016989;28;20120;-83
2021/09/26 01:43:12;;;;;;;12.82;7.80;;;;;;;;;;5033699;28;20307;-82
2021/09/26 01:45:46;;;;;;;14.25;9.05;;;;;;;;;;5018103;28;20075;-83
2021/09/26 01:48:14;;;;;;;16.55;10.88;;;;;;;;;;5017899;28;20026;-83
2021/09/26 01:50:40;;;;;;;13.35;9.57;;;;;;;;;;5020876;28;20033;-84
2021/09/26 01:53:07;;;;;;;26.90;12.48;;;;;;;;;;5038623;28;20021;-83
2021/09/26 01:55:33;;;;;;;34.40;12.70;;;;;;;;;;5016618;28;20025;-84
2021/09/26 01:57:59;;;;;;;170.88;19.20;;;;;;;;;;5019104;28;20172;-83
2021/09/26 02:00:24;;;;;;;100.95;20.20;;;;;;;;;;5032340;28;20489;-83
2021/09/26 02:02:51;;;;;;;25.70;12.38;;;;;;;;;;5014762;28;20065;-84
2021/09/26 02:05:18;;;;;;;24.95;14.18;;;;;;;;;;5015531;28;20021;-83
2021/09/26 02:07:44;;;;;;;140.75;16.75;;;;;;;;;;5018727;28;20036;-84
2021/09/26 02:10:10;;;;;;;100.93;16.13;;;;;;;;;;5036274;28;20044;-83
2021/09/26 02:12:35;;;;;;;22.65;15.57;;;;;;;;;;5017019;28;20033;-84
2021/09/26 02:15:03;;;;;;;43.30;19.02;;;;;;;;;;5019805;28;20029;-83
2021/09/26 02:17:28;;;;;;;32.58;13.52;;;;;;;;;;5032228;28;20094;-84
2021/09/26 02:19:59;;;;;;;15.73;11.50;;;;;;;;;;5015319;28;20050;-83
2021/09/26 02:22:28;;;;;;;16.70;9.80;;;;;;;;;;5016010;28;20045;-83
2021/09/26 02:24:54;;;;;;;13.45;10.80;;;;;;;;;;5016888;28;20473;-84
2021/09/26 02:27:19;;;;;;;25.55;14.77;;;;;;;;;;5034572;28;20035;-84
2021/09/26 02:29:44;;;;;;;22.58;14.50;;;;;;;;;;5016506;28;20595;-83
2021/09/26 02:32:09;;;;;;;27.13;15.43;;;;;;;;;;5034185;28;20433;-84
2021/09/26 02:34:35;;;;;;;28.73;16.50;;;;;;;;;;5031440;28;20310;-83
2021/09/26 02:37:00;;;;;;;96.68;19.25;;;;;;;;;;5032598;28;20465;-83
2021/09/26 02:39:26;;;;;;;125.03;19.25;;;;;;;;;;5031990;28;20461;-83
2021/09/26 02:41:57;;;;;;;232.02;21.20;;;;;;;;;;5032521;28;20025;-83
2021/09/26 02:44:25;;;;;;;53.63;18.95;;;;;;;;;;5017939;28;20116;-84
2021/09/26 02:46:56;;;;;;;34.17;17.02;;;;;;;;;;5015802;28;20392;-83
2021/09/26 02:49:21;;;;;;;29.50;16.98;;;;;;;;;;5017697;28;20026;-84
2021/09/26 02:51:47;;;;;;;29.23;16.20;;;;;;;;;;5034118;28;20032;-83
2021/09/26 02:54:14;;;;;;;22.25;14.98;;;;;;;;;;5013863;28;20260;-83
2021/09/26 02:56:39;;;;;;;14.50;10.88;;;;;;;;;;5013894;28;20025;-83
2021/09/26 02:59:05;;;;;;;14.20;12.00;;;;;;;;;;5032078;28;20055;-83
2021/09/26 03:01:30;;;;;;;12.50;11.20;;;;;;;;;;5017059;28;20022;-84
2021/09/26 03:04:03;;;;;;;11.20;10.05;;;;;;;;;;5036139;28;20369;-84
2021/09/26 03:06:28;;;;;;;12.40;9.77;;;;;;;;;;5019534;28;20025;-83
2021/09/26 03:08:53;;;;;;;22.17;13.90;;;;;;;;;;5013523;28;20112;-83
2021/09/26 03:11:19;;;;;;;14.17;11.33;;;;;;;;;;5031722;28;20032;-83
2021/09/26 03:13:44;;;;;;;21.47;13.70;;;;;;;;;;5014301;28;20261;-84
2021/09/26 03:16:09;;;;;;;13.50;10.98;;;;;;;;;;5013708;28;20252;-83
2021/09/26 03:18:34;;;;;;;9.52;8.52;;;;;;;;;;5013539;28;20053;-83
2021/09/26 03:20:59;;;;;;;16.30;11.10;;;;;;;;;;5015543;28;20017;-83
2021/09/26 03:23:25;;;;;;;12.00;9.23;;;;;;;;;;5018936;28;20267;-83
2021/09/26 03:25:50;;;;;;;16.13;10.23;;;;;;;;;;5016962;28;20252;-83
2021/09/26 03:28:15;;;;;;;14.85;10.30;;;;;;;;;;5037505;28;20311;-83
2021/09/26 03:30:41;;;;;;;19.50;11.82;;;;;;;;;;5013196;28;20063;-83
2021/09/26 03:33:06;;;;;;;9.33;8.10;;;;;;;;;;5014063;28;20014;-84
2021/09/26 03:35:31;;;;;;;15.35;10.90;;;;;;;;;;5013710;28;20253;-83
2021/09/26 03:37:57;;;;;;;14.48;8.88;;;;;;;;;;5013943;28;20044;-84
2021/09/26 03:40:22;;;;;;;12.88;8.65;;;;;;;;;;5032082;28;20104;-83
2021/09/26 03:42:47;;;;;;;15.60;11.07;;;;;;;;;;5020782;28;20072;-84
2021/09/26 03:45:12;;;;;;;11.98;9.30;;;;;;;;;;5037570;28;20380;-83
2021/09/26 03:47:38;;;;;;;15.95;9.98;;;;;;;;;;5021064;28;20032;-83
2021/09/26 03:50:04;;;;;;;9.55;8.20;;;;;;;;;;5016965;28;20434;-83
2021/09/26 03:52:29;;;;;;;10.50;8.75;;;;;;;;;;5017672;28;20025;-83
2021/09/26 03:54:54;;;;;;;13.63;9.32;;;;;;;;;;5017308;28;20025;-83
2021/09/26 03:57:20;;;;;;;15.27;8.98;;;;;;;;;;5017670;28;20037;-84
2021/09/26 03:59:45;;;;;;;9.60;7.95;;;;;;;;;;5036125;28;20022;-84
2021/09/26 04:02:10;;;;;;;20.70;9.73;;;;;;;;;;5019359;28;20026;-84
2021/09/26 04:04:36;;;;;;;15.43;8.93;;;;;;;;;;5021072;28;20032;-84
2021/09/26 04:07:01;;;;;;;14.00;9.25;;;;;;;;;;5016371;28;20307;-84
2021/09/26 04:09:26;;;;;;;15.65;8.95;;;;;;;;;;5016951;28;20116;-84
2021/09/26 04:11:52;;;;;;;10.35;8.55;;;;;;;;;;5017442;28;20784;-84
2021/09/26 04:14:17;;;;;;;18.10;11.17;;;;;;;;;;5017555;28;20033;-84
2021/09/26 04:16:42;;;;;;;13.95;8.77;;;;;;;;;;5017430;28;20264;-84
2021/09/26 04:19:08;;;;;;;13.40;8.77;;;;;;;;;;5017855;28;20513;-84
2021/09/26 04:21:33;;;;;;;14.10;10.02;;;;;;;;;;5017637;28;20145;-84
2021/09/26 04:23:58;;;;;;;9.82;8.13;;;;;;;;;;5018142;28;20117;-84
2021/09/26 04:26:23;;;;;;;18.90;9.33;;;;;;;;;;5016149;28;20076;-83
2021/09/26 04:28:49;;;;;;;21.30;12.35;;;;;;;;;;5016933;28;20267;-83
2021/09/26 04:31:14;;;;;;;20.02;11.07;;;;;;;;;;5017467;28;20021;-84
2021/09/26 04:33:39;;;;;;;17.95;9.93;;;;;;;;;;5035919;28;20025;-84
2021/09/26 04:36:05;;;;;;;26.00;13.88;;;;;;;;;;5034819;28;20022;-84
2021/09/26 04:38:30;;;;;;;18.15;10.27;;;;;;;;;;5017095;28;20029;-84
2021/09/26 04:40:56;;;;;;;28.75;13.35;;;;;;;;;;5038912;28;20021;-84
2021/09/26 04:43:21;;;;;;;29.42;13.98;;;;;;;;;;5034324;28;20025;-84
2021/09/26 04:45:47;;;;;;;24.08;13.63;;;;;;;;;;5034253;28;20029;-84
2021/09/26 04:48:12;;;;;;;23.95;13.52;;;;;;;;;;5034583;28;20030;-84
2021/09/26 04:50:38;;;;;;;28.58;15.05;;;;;;;;;;5034409;28;20025;-84
2021/09/26 04:53:03;;;;;;;25.75;14.65;;;;;;;;;;5016353;28;20037;-84
2021/09/26 04:55:29;;;;;;;19.45;12.35;;;;;;;;;;5017224;28;20068;-84
2021/09/26 04:57:55;;;;;;;46.42;18.23;;;;;;;;;;5019952;28;20034;-84
2021/09/26 05:00:21;;;;;;;33.25;17.38;;;;;;;;;;5015828;28;20025;-84
2021/09/26 05:02:46;;;;;;;36.60;18.25;;;;;;;;;;5033669;28;20032;-84
2021/09/26 05:05:12;;;;;;;30.25;15.10;;;;;;;;;;5034157;28;20025;-84
2021/09/26 05:07:37;;;;;;;25.58;13.65;;;;;;;;;;5016198;28;20057;-84
2021/09/26 05:10:03;;;;;;;41.17;18.17;;;;;;;;;;5017952;28;20084;-84
2021/09/26 05:12:28;;;;;;;22.00;13.27;;;;;;;;;;5035202;28;20025;-84
2021/09/26 05:14:55;;;;;;;30.98;16.15;;;;;;;;;;5034933;28;20462;-84
2021/09/26 05:17:21;;;;;;;39.38;18.27;;;;;;;;;;5019057;28;20040;-84
2021/09/26 05:19:47;;;;;;;23.17;13.25;;;;;;;;;;5035271;28;20053;-83
2021/09/26 05:22:13;;;;;;;36.65;16.50;;;;;;;;;;5017305;28;20069;-84
2021/09/26 05:24:38;;;;;;;34.85;17.02;;;;;;;;;;5017307;28;20061;-84
2021/09/26 05:27:04;;;;;;;25.55;15.18;;;;;;;;;;5015474;28;20405;-83
2021/09/26 05:29:29;;;;;;;24.38;13.75;;;;;;;;;;5016333;28;20026;-85
2021/09/26 05:31:54;;;;;;;28.35;14.77;;;;;;;;;;5015757;28;20515;-84
2021/09/26 05:34:20;;;;;;;36.63;16.83;;;;;;;;;;5037804;28;20049;-84
2021/09/26 05:36:45;;;;;;;30.50;16.05;;;;;;;;;;5034866;28;20533;-84
2021/09/26 05:39:10;;;;;;;22.52;12.98;;;;;;;;;;5018450;28;20053;-84
2021/09/26 05:41:36;;;;;;;30.65;15.05;;;;;;;;;;5035294;28;20033;-84
2021/09/26 05:44:01;;;;;;;27.88;13.93;;;;;;;;;;5035175;28;20472;-84
2021/09/26 05:46:26;;;;;;;35.25;15.85;;;;;;;;;;5016659;28;20025;-84
2021/09/26 05:48:51;;;;;;;33.08;14.75;;;;;;;;;;5033699;28;20021;-84
2021/09/26 05:51:17;;;;;;;28.13;13.77;;;;;;;;;;5015930;28;20381;-84
2021/09/26 05:53:42;;;;;;;35.10;15.93;;;;;;;;;;5035190;28;20385;-84
2021/09/26 05:56:07;;;;;;;41.22;17.23;;;;;;;;;;5032229;28;20257;-83
2021/09/26 05:58:32;;;;;;;28.63;13.55;;;;;;;;;;5015075;28;20056;-84
2021/09/26 06:00:58;;;;;;;32.13;16.05;;;;;;;;;;5032907;28;20155;-84
2021/09/26 06:03:23;;;;;;;19.60;11.50;;;;;;;;;;5014864;28;20029;-84
2021/09/26 06:05:49;;;;;;;25.33;14.85;;;;;;;;;;5016214;28;20093;-84
2021/09/26 06:08:14;;;;;;;32.50;14.68;;;;;;;;;;5015646;28;20021;-84
2021/09/26 06:10:39;;;;;;;29.23;13.68;;;;;;;;;;5033792;28;20018;-84
2021/09/26 06:13:05;;;;;;;30.95;15.25;;;;;;;;;;5014529;28;20021;-84
2021/09/26 06:15:30;;;;;;;21.17;12.33;;;;;;;;;;5014934;28;20061;-84
2021/09/26 06:17:56;;;;;;;24.65;14.13;;;;;;;;;;5032582;28;20780;-84
2021/09/26 06:20:22;;;;;;;23.02;13.55;;;;;;;;;;5031669;28;20069;-84
2021/09/26 06:22:48;;;;;;;27.20;13.38;;;;;;;;;;5031196;28;20115;-84
2021/09/26 06:25:13;;;;;;;24.05;13.50;;;;;;;;;;5031620;28;20028;-84
2021/09/26 06:27:38;;;;;;;30.05;16.30;;;;;;;;;;5031579;28;20839;-84
2021/09/26 06:30:04;;;;;;;29.98;14.75;;;;;;;;;;5014606;28;20018;-84
2021/09/26 06:32:31;;;;;;;25.55;13.68;;;;;;;;;;5032240;28;20036;-84
2021/09/26 06:34:58;;;;;;;25.45;14.55;;;;;;;;;;5013934;28;20099;-84
2021/09/26 06:37:23;;;;;;;30.70;14.75;;;;;;;;;;5031665;28;20021;-84
2021/09/26 06:39:50;;;;;;;21.30;11.30;;;;;;;;;;5013910;28;20036;-84
2021/09/26 06:42:15;;;;;;;28.40;13.75;;;;;;;;;;5014252;28;20112;-84
2021/09/26 06:44:40;;;;;;;24.58;13.07;;;;;;;;;;5034609;28;20053;-84
2021/09/26 06:47:06;;;;;;;25.33;12.00;;;;;;;;;;5031211;28;20021;-84
2021/09/26 06:49:31;;;;;;;18.15;10.45;;;;;;;;;;5033025;28;20257;-83
2021/09/26 06:51:56;;;;;;;19.03;11.13;;;;;;;;;;5014257;28;20438;-83
2021/09/26 06:54:22;;;;;;;32.65;13.23;;;;;;;;;;5014349;28;20755;-84
2021/09/26 06:56:47;;;;;;;21.58;9.95;;;;;;;;;;5013508;28;20032;-84
2021/09/26 06:59:12;;;;;;;22.23;10.80;;;;;;;;;;5031362;28;20486;-84
2021/09/26 07:01:37;;;;;;;20.63;9.80;;;;;;;;;;5031674;28;20029;-84
2021/09/26 07:04:03;;;;;;;20.03;10.27;;;;;;;;;;5014366;28;20256;-84
2021/09/26 07:06:29;;;;;;;18.77;9.93;;;;;;;;;;5030711;28;20763;-85
2021/09/26 07:08:54;;;;;;;16.70;9.07;;;;;;;;;;5014056;28;20183;-84
2021/09/26 07:11:20;;;;;;;20.40;9.60;;;;;;;;;;5013593;28;20064;-84
2021/09/26 07:13:46;;;;;;;19.23;9.45;;;;;;;;;;5013754;28;20764;-83
2021/09/26 07:16:11;;;;;;;10.80;6.28;;;;;;;;;;5015085;28;20033;-84
2021/09/26 07:18:36;;;;;;;11.35;6.57;;;;;;;;;;5021469;28;20045;-83
2021/09/26 07:21:01;;;;;;;12.10;7.10;;;;;;;;;;5012736;28;20037;-84
2021/09/26 07:23:27;;;;;;;13.25;7.35;;;;;;;;;;5031135;28;20017;-83
2021/09/26 07:25:52;;;;;;;10.55;6.15;;;;;;;;;;5013305;28;20385;-84
2021/09/26 07:28:17;;;;;;;13.13;6.97;;;;;;;;;;5031719;28;20061;-84
2021/09/26 07:30:43;;;;;;;11.15;7.13;;;;;;;;;;5014361;28;20017;-83
2021/09/26 07:33:08;;;;;;;11.23;6.97;;;;;;;;;;5013584;28;20030;-84
2021/09/26 07:35:34;;;;;;;14.18;6.78;;;;;;;;;;5032342;28;20054;-83
2021/09/26 07:37:59;;;;;;;10.90;7.13;;;;;;;;;;5035294;28;20030;-84
2021/09/26 07:40:25;;;;;;;12.57;7.05;;;;;;;;;;5030502;28;20452;-84
2021/09/26 07:42:50;;;;;;;16.63;7.60;;;;;;;;;;5031050;28;20071;-84
2021/09/26 07:45:15;;;;;;;17.63;6.88;;;;;;;;;;5015760;28;20128;-84
2021/09/26 07:47:41;;;;;;;14.85;6.65;;;;;;;;;;5012893;28;20155;-83
2021/09/26 07:50:08;;;;;;;14.50;7.43;;;;;;;;;;5012606;28;20029;-83
2021/09/26 07:52:33;;;;;;;14.30;7.68;;;;;;;;;;5012670;28;20021;-83
2021/09/26 07:54:59;;;;;;;13.88;7.50;;;;;;;;;;5032061;28;20046;-84
2021/09/26 07:57:24;;;;;;;14.77;7.05;;;;;;;;;;5013875;28;20022;-84
2021/09/26 07:59:50;;;;;;;14.02;7.60;;;;;;;;;;5029835;28;20029;-84
2021/09/26 08:02:16;;;;;;;17.27;9.35;;;;;;;;;;5012409;28;20017;-84
2021/09/26 08:04:42;;;;;;;32.30;18.65;;;;;;;;;;5012173;28;20021;-84
2021/09/26 08:07:07;;;;;;;19.00;10.25;;;;;;;;;;5012953;28;20043;-84
2021/09/26 08:09:32;;;;;;;18.88;8.93;;;;;;;;;;5014323;28;20022;-84
2021/09/26 08:11:57;;;;;;;13.90;8.15;;;;;;;;;;5014302;28;20021;-83
2021/09/26 08:14:23;;;;;;;14.90;8.00;;;;;;;;;;5031483;28;20022;-83
2021/09/26 08:16:48;;;;;;;13.80;7.72;;;;;;;;;;5013719;28;20269;-83
2021/09/26 08:19:13;;;;;;;12.93;6.47;;;;;;;;;;5031763;28;20045;-84
2021/09/26 08:21:39;;;;;;;17.40;7.85;;;;;;;;;;5013112;28;20029;-84
2021/09/26 08:24:06;;;;;;;11.53;6.60;;;;;;;;;;5031408;28;20034;-84
2021/09/26 08:26:32;;;;;;;13.50;7.63;;;;;;;;;;5015328;28;20268;-85
2021/09/26 08:28:57;;;;;;;11.30;7.03;;;;;;;;;;5037668;28;20048;-85
2021/09/26 08:31:23;;;;;;;13.70;6.90;;;;;;;;;;5019209;28;20525;-84
2021/09/26 08:33:48;;;;;;;10.85;6.82;;;;;;;;;;5037819;28;20029;-83
2021/09/26 08:36:13;;;;;;;9.25;6.30;;;;;;;;;;5019512;28;20021;-83
2021/09/26 08:38:38;;;;;;;11.27;6.30;;;;;;;;;;5015813;28;20036;-83
2021/09/26 08:41:04;;;;;;;13.57;6.20;;;;;;;;;;5016510;28;20072;-83
2021/09/26 08:43:30;;;;;;;9.82;5.30;;;;;;;;;;5034497;28;20029;-83
2021/09/26 08:45:55;;;;;;;9.07;5.00;;;;;;;;;;5017777;28;20032;-83
2021/09/26 08:48:21;;;;;;;9.10;5.22;;;;;;;;;;5017777;28;20025;-82
2021/09/26 08:50:47;;;;;;;7.70;5.13;;;;;;;;;;5018111;28;20032;-82
2021/09/26 08:53:13;;;;;;;9.93;5.15;;;;;;;;;;5017118;28;20025;-83
2021/09/26 08:55:38;;;;;;;7.50;4.63;;;;;;;;;;5035114;28;20048;-83
2021/09/26 08:58:03;;;;;;;11.45;5.00;;;;;;;;;;5016680;28;20025;-84
2021/09/26 09:00:29;;;;;;;9.20;5.45;;;;;;;;;;5016427;28;20120;-84
2021/09/26 09:02:55;;;;;;;10.18;4.93;;;;;;;;;;5034116;28;20029;-84
2021/09/26 09:05:34;;;;;;;8.35;4.30;;;;;;;;;;5016993;28;20036;-84
2021/09/26 09:08:02;;;;;;;10.75;5.38;;;;;;;;;;5017646;28;20032;-84
2021/09/26 09:10:36;;;;;;;11.05;5.30;;;;;;;;;;5017206;28;20474;-84
2021/09/26 09:13:01;;;;;;;7.07;4.35;;;;;;;;;;5016303;28;20810;-83
2021/09/26 09:15:27;;;;;;;12.45;5.47;;;;;;;;;;5033072;28;20025;-83
2021/09/26 09:17:59;;;;;;;10.73;5.18;;;;;;;;;;5032297;28;20028;-83
2021/09/26 09:20:26;;;;;;;6.53;4.03;;;;;;;;;;5014867;28;20025;-83
2021/09/26 09:22:52;;;;;;;7.97;3.80;;;;;;;;;;5015627;28;20027;-84
2021/09/26 09:25:36;;;;;;;8.68;4.22;;;;;;;;;;5015119;28;20059;-83
2021/09/26 09:28:04;;;;;;;7.53;3.88;;;;;;;;;;5015267;28;20071;-84
2021/09/26 09:30:30;;;;;;;8.02;3.83;;;;;;;;;;5015862;28;20481;-85
2021/09/26 09:32:56;;;;;;;7.97;3.03;;;;;;;;;;5016074;28;20053;-84
2021/09/26 09:35:21;;;;;;;8.73;3.10;;;;;;;;;;5015797;28;20052;-84
2021/09/26 09:37:47;;;;;;;5.57;2.80;;;;;;;;;;5033689;28;20030;-84
2021/09/26 09:40:16;;;;;;;12.02;3.30;;;;;;;;;;5016360;28;20445;-84
2021/09/26 09:42:49;;;;;;;7.40;2.97;;;;;;;;;;5016149;28;20029;-83
2021/09/26 09:45:20;;;;;;;7.45;3.78;;;;;;;;;;5016043;28;20549;-84
2021/09/26 09:48:04;;;;;;;7.57;3.55;;;;;;;;;;5016270;28;20397;-84
2021/09/26 09:50:30;;;;;;;8.65;3.55;;;;;;;;;;5017026;28;20037;-84
2021/09/26 09:52:56;;;;;;;7.72;4.07;;;;;;;;;;5016108;28;20017;-83
2021/09/26 09:55:24;;;;;;;10.32;3.70;;;;;;;;;;5015502;28;20461;-84
2021/09/26 09:57:49;;;;;;;8.63;4.55;;;;;;;;;;5032379;28;20042;-84
2021/09/26 10:00:19;;;;;;;6.68;3.50;;;;;;;;;;5032756;28;20857;-85
2021/09/26 10:02:44;;;;;;;5.95;3.10;;;;;;;;;;5015624;28;20436;-85
2021/09/26 10:05:48;;;;;;;11.90;4.03;;;;;;;;;;5015770;28;20072;-84
2021/09/26 10:08:13;;;;;;;10.93;3.38;;;;;;;;;;4933426;29;20488;-84
2021/09/26 10:10:39;;;;;;;6.22;4.03;;;;;;;;;;4933123;29;20043;-84
2021/09/26 10:13:08;;;;;;;8.70;3.45;;;;;;;;;;4978219;28;20557;-84
2021/09/26 10:15:33;;;;;;;5.97;3.22;;;;;;;;;;5015549;28;20024;-83
2021/09/26 10:17:59;;;;;;;7.20;2.80;;;;;;;;;;5023980;28;20383;-83
2021/09/26 10:20:24;;;;;;;7.57;2.90;;;;;;;;;;5033092;28;20021;-84
2021/09/26 10:22:49;;;;;;;7.77;3.57;;;;;;;;;;5032857;28;20393;-83
2021/09/26 10:25:14;;;;;;;5.10;3.17;;;;;;;;;;5032944;28;20025;-83
2021/09/26 10:27:39;;;;;;;6.85;3.30;;;;;;;;;;5033568;28;20352;-83
2021/09/26 10:30:06;;;;;;;6.38;3.60;;;;;;;;;;5035091;28;20025;-84
2021/09/26 10:32:32;;;;;;;6.40;3.90;;;;;;;;;;5036598;28;20092;-84
2021/09/26 10:34:58;;;;;;;9.32;3.63;;;;;;;;;;5051666;28;20092;-87
2021/09/26 10:37:23;;;;;;;5.63;3.63;;;;;;;;;;5033057;28;20021;-86
2021/09/26 10:39:49;;;;;;;6.55;3.75;;;;;;;;;;5012937;28;20116;-86
2021/09/26 10:42:20;;;;;;;7.30;3.35;;;;;;;;;;5030778;28;20045;-83
2021/09/26 10:44:46;;;;;;;;;;;;;;;;;;5031192;28;20443;-83
2021/09/26 10:47:18;;;;;;;9.70;3.50;;;;;;;;;;5027358;28;19912;-83
2021/09/26 10:49:51;;;;;;;8.13;4.00;;;;;;;;;;5034555;28;20017;-83
2021/09/26 10:52:24;;;;;;;5.50;3.60;;;;;;;;;;5052852;28;20017;-84
2021/09/26 10:54:49;;;;;;;5.43;4.10;;;;;;;;;;5033286;28;20456;-83
2021/09/26 10:57:18;;;;;;;10.68;4.78;;;;;;;;;;5032178;28;20021;-86
2021/09/26 10:59:44;;;;;;;7.57;4.30;;;;;;;;;;5032115;28;20093;-85
2021/09/26 11:02:21;;;;;;;7.33;4.47;;;;;;;;;;5049997;28;20112;-86
2021/09/26 11:04:47;;;;;;;7.32;4.53;;;;;;;;;;5031415;28;20021;-86
2021/09/26 11:07:16;;;;;;;9.77;4.60;;;;;;;;;;5032138;28;20024;-86
2021/09/26 11:09:57;;;;;;;11.18;4.22;;;;;;;;;;5031825;28;20039;-85
2021/09/26 11:12:41;;;;;;;9.52;5.05;;;;;;;;;;5050963;28;20025;-86
2021/09/26 11:15:11;;;;;;;8.63;4.90;;;;;;;;;;5032233;28;20017;-86
2021/09/26 11:17:45;;;;;;;8.00;5.10;;;;;;;;;;5050390;28;20663;-87
2021/09/26 11:20:12;;;;;;;8.75;5.95;;;;;;;;;;5032599;28;20036;-87
2021/09/26 11:22:37;;;;;;;9.35;5.53;;;;;;;;;;5050356;28;20074;-88
2021/09/26 11:25:03;;;;;;;10.85;5.97;;;;;;;;;;5032088;28;20024;-83
2021/09/26 11:27:34;;;;;;;7.38;5.68;;;;;;;;;;5049190;28;20039;-83
2021/09/26 11:30:06;;;;;;;11.48;6.40;;;;;;;;;;5013703;28;20468;-83
2021/09/26 11:32:33;;;;;;;9.48;6.60;;;;;;;;;;5039087;28;20056;-83
2021/09/26 11:35:22;;;;;;;9.75;6.65;;;;;;;;;;5032243;28;20070;-83
2021/09/26 11:37:48;;;;;;;14.20;8.15;;;;;;;;;;5036549;28;20448;-83
2021/09/26 11:40:15;;;;;;;7.93;6.53;;;;;;;;;;5041527;28;20440;-82
2021/09/26 11:42:41;;;;;;;12.90;8.48;;;;;;;;;;5051661;28;20052;-84
2021/09/26 11:45:08;;;;;;;9.85;8.73;;;;;;;;;;5052035;28;20484;-84
2021/09/26 11:47:33;;;;;;;9.48;8.05;;;;;;;;;;5051539;28;20115;-84
2021/09/26 11:50:02;;;;;;;10.77;8.43;;;;;;;;;;5041869;28;20111;-83
2021/09/26 11:52:27;;;;;;;9.90;8.45;;;;;;;;;;5038905;28;20264;-84
2021/09/26 11:54:59;;;;;;;10.18;8.52;;;;;;;;;;5031878;28;20032;-83
2021/09/26 11:57:24;;;;;;;11.38;7.43;;;;;;;;;;5050731;28;20738;-84
2021/09/26 11:59:49;;;;;;;10.52;8.32;;;;;;;;;;5034484;28;20024;-84
2021/09/26 12:02:15;;;;;;;10.60;8.73;;;;;;;;;;5054408;28;20520;-82
2021/09/26 12:04:42;;;;;;;8.30;6.97;;;;;;;;;;5037307;28;20021;-85
2021/09/26 12:07:08;;;;;;;14.05;8.90;;;;;;;;;;5036557;28;20110;-84
2021/09/26 12:09:42;;;;;;;14.35;9.38;;;;;;;;;;5053744;28;20484;-84
2021/09/26 12:12:18;;;;;;;13.30;8.07;;;;;;;;;;5053635;28;20025;-84
2021/09/26 12:14:45;;;;;;;9.40;8.30;;;;;;;;;;5054007;28;20084;-84
2021/09/26 12:17:12;;;;;;;14.45;9.98;;;;;;;;;;5036369;28;20033;-84
2021/09/26 12:19:37;;;;;;;14.13;8.55;;;;;;;;;;5054436;28;20626;-85
2021/09/26 12:22:07;;;;;;;12.38;8.73;;;;;;;;;;5035884;28;20025;-85
2021/09/26 12:24:38;;;;;;;11.07;7.40;;;;;;;;;;5053255;28;20492;-86
2021/09/26 12:27:16;;;;;;;13.80;7.88;;;;;;;;;;5052850;28;20039;-85
2021/09/26 12:29:48;;;;;;;8.77;6.63;;;;;;;;;;5034777;28;20078;-85
2021/09/26 12:32:14;;;;;;;10.45;7.60;;;;;;;;;;5052685;28;20558;-85
2021/09/26 12:34:45;;;;;;;16.80;7.43;;;;;;;;;;5034348;28;20116;-85
2021/09/26 12:37:21;;;;;;;8.38;6.85;;;;;;;;;;5053440;28;20021;-84
2021/09/26 12:39:48;;;;;;;9.93;6.22;;;;;;;;;;5053646;28;20025;-85
2021/09/26 12:42:35;;;;;;;11.13;6.20;;;;;;;;;;5035084;28;20047;-85
2021/09/26 12:45:24;;;;;;;8.57;6.55;;;;;;;;;;5034931;28;20033;-85
2021/09/26 12:47:51;;;;;;;7.78;6.13;;;;;;;;;;5019516;23;20046;-84
2021/09/26 12:50:17;;;;;;;8.65;6.10;;;;;;;;;;4992414;28;20026;-86
2021/09/26 12:52:43;;;;;;;9.80;5.90;;;;;;;;;;4993190;28;20490;-85
2021/09/26 12:55:10;;;;;;;8.07;6.13;;;;;;;;;;5013326;28;20028;-85
2021/09/26 12:57:36;;;;;;;13.77;6.95;;;;;;;;;;5011581;28;20492;-86
2021/09/26 13:00:13;;;;;;;8.98;6.60;;;;;;;;;;5011861;28;20036;-86
2021/09/26 13:02:40;;;;;;;7.65;5.78;;;;;;;;;;5010800;28;20057;-85
2021/09/26 13:05:07;;;;;;;8.18;5.75;;;;;;;;;;5010735;28;20029;-85
2021/09/26 13:07:33;;;;;;;6.82;4.90;;;;;;;;;;5011103;28;20176;-85
2021/09/26 13:10:18;;;;;;;9.60;5.07;;;;;;;;;;5012890;28;20861;-85
2021/09/26 13:12:46;;;;;;;6.38;4.40;;;;;;;;;;5009733;28;20037;-85
2021/09/26 13:15:17;;;;;;;7.65;4.63;;;;;;;;;;5013323;28;20117;-85
2021/09/26 13:17:43;;;;;;;8.85;4.88;;;;;;;;;;5012041;28;20029;-86
2021/09/26 13:20:28;;;;;;;9.90;4.60;;;;;;;;;;5013846;28;20026;-85
2021/09/26 13:23:12;;;;;;;7.28;4.20;;;;;;;;;;5011391;28;20022;-85
2021/09/26 13:25:38;;;;;;;8.70;4.50;;;;;;;;;;5010923;28;20036;-86
2021/09/26 13:28:06;;;;;;;7.40;4.18;;;;;;;;;;5012320;28;20381;-85
2021/09/26 13:30:33;;;;;;;6.82;4.75;;;;;;;;;;5012333;28;20022;-85
2021/09/26 13:32:59;;;;;;;7.93;4.60;;;;;;;;;;5012548;28;20022;-85
2021/09/26 13:35:29;;;;;;;10.48;5.22;;;;;;;;;;5012359;28;20092;-86
2021/09/26 13:38:03;;;;;;;10.35;4.93;;;;;;;;;;5011977;28;20060;-85
2021/09/26 13:40:29;;;;;;;8.45;5.65;;;;;;;;;;5012698;28;20022;-85
2021/09/26 13:42:56;;;;;;;8.10;5.28;;;;;;;;;;5010679;28;20587;-85
2021/09/26 13:45:21;;;;;;;8.35;5.00;;;;;;;;;;5012557;28;20471;-85
2021/09/26 13:47:46;;;;;;;8.27;5.47;;;;;;;;;;5024398;28;20065;-86
2021/09/26 13:50:12;;;;;;;6.85;5.13;;;;;;;;;;5034052;28;20029;-85
2021/09/26 13:52:37;;;;;;;7.97;5.00;;;;;;;;;;5032254;28;20032;-85
2021/09/26 13:55:03;;;;;;;7.03;4.57;;;;;;;;;;5012688;28;20314;-85
2021/09/26 13:57:29;;;;;;;13.75;4.80;;;;;;;;;;4996753;28;20030;-85
2021/09/26 13:59:54;;;;;;;8.07;4.55;;;;;;;;;;4995375;28;20793;-85
2021/09/26 14:02:20;;;;;;;6.60;4.68;;;;;;;;;;4994078;28;20033;-85
2021/09/26 14:04:45;;;;;;;6.13;5.40;;;;;;;;;;4994519;28;20529;-85
2021/09/26 14:07:11;;;;;;;6.35;5.18;;;;;;;;;;5022253;28;20370;-85
2021/09/26 14:09:37;;;;;;;5.93;5.32;;;;;;;;;;5018284;28;20051;-87
2021/09/26 14:12:02;;;;;;;7.10;4.78;;;;;;;;;;5031504;28;20021;-85
2021/09/26 14:14:27;;;;;;;7.33;4.87;;;;;;;;;;5000777;28;20022;-85
2021/09/26 14:16:52;;;;;;;8.70;5.73;;;;;;;;;;5011791;28;20261;-85
2021/09/26 14:19:18;;;;;;;7.45;6.28;;;;;;;;;;5010102;28;20081;-85
2021/09/26 14:21:43;;;;;;;7.80;6.72;;;;;;;;;;4994000;28;20052;-85
2021/09/26 14:24:08;;;;;;;11.93;6.00;;;;;;;;;;5004933;28;20393;-84
2021/09/26 14:26:34;;;;;;;7.63;5.68;;;;;;;;;;5014224;28;20798;-85
2021/09/26 14:28:59;;;;;;;7.22;5.60;;;;;;;;;;5011417;28;20101;-85
2021/09/26 14:31:25;;;;;;;7.03;5.80;;;;;;;;;;5016901;28;20021;-85